createdAt,value
2023-05-03T00:00:22.734Z,8.13
2023-05-03T00:01:24.916Z,8.25
2023-05-03T00:02:27.283Z,7.68
2023-05-03T00:03:29.562Z,7.75
2023-05-03T00:04:31.869Z,7.80
2023-05-03T00:05:34.170Z,8.23
2023-05-03T00:06:36.358Z,7.78
2023-05-03T00:07:40.358Z,8.52
2023-05-03T00:08:43.193Z,8.60
2023-05-03T00:09:45.910Z,8.77
2023-05-03T00:10:48.061Z,8.00
2023-05-03T00:11:50.321Z,7.32
2023-05-03T00:12:52.593Z,7.30
2023-05-03T00:13:54.724Z,7.63
2023-05-03T00:14:56.847Z,8.27
2023-05-03T00:15:59.407Z,8.20
2023-05-03T00:17:01.703Z,7.63
2023-05-03T00:18:03.996Z,8.57
2023-05-03T00:19:07.791Z,8.10
2023-05-03T00:20:13.064Z,7.57
2023-05-03T00:21:15.339Z,8.13
2023-05-03T00:22:17.915Z,8.20
2023-05-03T00:23:20.312Z,8.52
2023-05-03T00:24:22.557Z,8.77
2023-05-03T00:25:24.767Z,8.40
2023-05-03T00:26:27.841Z,8.60
2023-05-03T00:27:30.142Z,7.50
2023-05-03T00:28:32.329Z,7.43
2023-05-03T00:29:34.582Z,7.40
2023-05-03T00:30:36.793Z,8.18
2023-05-03T00:31:39.141Z,8.10
2023-05-03T00:32:41.522Z,8.18
2023-05-03T00:33:43.860Z,7.72
2023-05-03T00:34:46.025Z,7.75
2023-05-03T00:35:48.252Z,7.50
2023-05-03T00:36:51.160Z,8.25
2023-05-03T00:37:53.400Z,8.55
2023-05-03T00:38:55.601Z,7.78
2023-05-03T00:39:57.873Z,7.90
2023-05-03T00:41:00.048Z,8.07
2023-05-03T00:42:04.024Z,8.05
2023-05-03T00:43:06.280Z,7.53
2023-05-03T00:44:08.579Z,8.00
2023-05-03T00:45:11.072Z,7.45
2023-05-03T00:46:17.433Z,7.97
2023-05-03T00:47:20.848Z,7.90
2023-05-03T00:48:23.315Z,8.40
2023-05-03T00:49:25.751Z,8.65
2023-05-03T00:50:28.706Z,7.82
2023-05-03T00:51:30.879Z,8.32
2023-05-03T00:52:33.733Z,8.45
2023-05-03T00:53:36.271Z,7.70
2023-05-03T00:54:39.496Z,8.15
2023-05-03T00:55:42.157Z,7.78
2023-05-03T00:56:51.558Z,8.32
2023-05-03T00:57:54.841Z,8.40
2023-05-03T00:58:57.064Z,8.68
2023-05-03T01:00:00.024Z,8.70
2023-05-03T01:01:02.554Z,7.60
2023-05-03T01:02:04.842Z,8.20
2023-05-03T01:03:07.426Z,8.50
2023-05-03T01:04:10.333Z,7.75
2023-05-03T01:05:12.719Z,8.10
2023-05-03T01:06:38.897Z,8.43
2023-05-03T01:08:11.334Z,8.98
2023-05-03T01:09:39.394Z,8.05
2023-05-03T01:10:57.921Z,8.68
2023-05-03T01:12:08.976Z,8.77
2023-05-03T01:13:42.601Z,8.57
2023-05-03T01:16:14.434Z,8.63
2023-05-03T01:17:20.050Z,8.23
2023-05-03T01:18:30.432Z,8.95
2023-05-03T01:19:37.375Z,7.70
2023-05-03T01:20:45.162Z,8.80
2023-05-03T01:21:51.465Z,7.60
2023-05-03T01:22:59.330Z,7.30
2023-05-03T01:24:07.617Z,8.57
2023-05-03T01:25:11.838Z,9.18
2023-05-03T01:26:24.766Z,9.07
2023-05-03T01:27:26.883Z,9.45
2023-05-03T01:28:29.035Z,8.63
2023-05-03T01:29:31.245Z,8.25
2023-05-03T01:30:35.013Z,8.40
2023-05-03T01:31:57.659Z,8.65
2023-05-03T01:33:05.971Z,8.70
2023-05-03T01:34:21.742Z,9.05
2023-05-03T01:35:37.304Z,9.05
2023-05-03T01:36:42.617Z,8.60
2023-05-03T01:37:44.828Z,8.77
2023-05-03T01:38:48.665Z,8.80
2023-05-03T01:39:59.858Z,8.00
2023-05-03T01:41:06.307Z,7.63
2023-05-03T01:42:08.523Z,8.20
2023-05-03T01:43:17.066Z,7.93
2023-05-03T01:44:21.178Z,8.55
2023-05-03T01:45:23.442Z,8.23
2023-05-03T01:46:25.808Z,8.63
2023-05-03T01:47:28.190Z,8.38
2023-05-03T01:48:30.445Z,8.70
2023-05-03T01:49:33.587Z,8.75
2023-05-03T01:50:35.895Z,8.90
2023-05-03T01:51:38.090Z,8.55
2023-05-03T01:52:40.416Z,8.77
2023-05-03T01:53:42.618Z,8.73
2023-05-03T01:54:44.858Z,8.05
2023-05-03T01:55:47.929Z,8.80
2023-05-03T01:56:50.257Z,8.70
2023-05-03T01:57:52.492Z,8.02
2023-05-03T01:58:54.683Z,8.68
2023-05-03T01:59:56.958Z,7.55
2023-05-03T02:02:09.029Z,8.60
2023-05-03T02:03:11.359Z,8.48
2023-05-03T02:04:14.012Z,9.02
2023-05-03T02:05:16.291Z,8.82
2023-05-03T02:06:18.586Z,8.88
2023-05-03T02:07:20.850Z,7.32
2023-05-03T02:08:23.056Z,8.57
2023-05-03T02:09:25.787Z,9.40
2023-05-03T02:10:27.966Z,8.82
2023-05-03T02:11:31.294Z,9.02
2023-05-03T02:12:33.584Z,8.23
2023-05-03T02:13:38.549Z,9.02
2023-05-03T02:14:41.141Z,8.07
2023-05-03T02:15:44.600Z,8.35
2023-05-03T02:16:46.914Z,7.68
2023-05-03T02:17:49.592Z,7.80
2023-05-03T02:18:53.675Z,8.52
2023-05-03T02:19:56.086Z,7.82
2023-05-03T02:20:58.273Z,8.95
2023-05-03T02:22:00.574Z,8.60
2023-05-03T02:23:02.997Z,8.07
2023-05-03T02:24:05.817Z,7.75
2023-05-03T02:25:08.265Z,7.80
2023-05-03T02:26:10.592Z,7.32
2023-05-03T02:27:13.630Z,7.40
2023-05-03T02:28:15.782Z,8.43
2023-05-03T02:29:18.073Z,8.68
2023-05-03T02:30:21.030Z,8.23
2023-05-03T02:31:23.622Z,8.07
2023-05-03T02:32:25.940Z,8.60
2023-05-03T02:33:28.309Z,8.05
2023-05-03T02:34:30.818Z,7.53
2023-05-03T02:35:33.583Z,7.78
2023-05-03T02:36:35.836Z,7.90
2023-05-03T02:37:37.968Z,7.70
2023-05-03T02:38:44.710Z,7.55
2023-05-03T02:39:47.604Z,7.50
2023-05-03T02:40:51.304Z,8.00
2023-05-03T02:41:53.511Z,7.38
2023-05-03T02:42:55.697Z,8.45
2023-05-03T02:44:02.451Z,7.78
2023-05-03T02:45:04.929Z,8.77
2023-05-03T02:46:07.353Z,7.93
2023-05-03T02:47:10.371Z,7.97
2023-05-03T02:48:16.484Z,7.38
2023-05-03T02:49:18.899Z,7.70
2023-05-03T02:50:21.033Z,7.40
2023-05-03T02:51:24.233Z,7.82
2023-05-03T02:52:26.372Z,8.88
2023-05-03T02:53:28.621Z,8.05
2023-05-03T02:54:34.518Z,8.65
2023-05-03T02:55:43.644Z,9.40
2023-05-03T02:56:45.860Z,8.82
2023-05-03T02:57:48.061Z,8.05
2023-05-03T02:58:54.574Z,8.23
2023-05-03T02:59:58.496Z,8.85
2023-05-03T03:01:01.659Z,8.82
2023-05-03T03:02:05.689Z,8.50
2023-05-03T03:03:09.422Z,8.63
2023-05-03T03:04:11.709Z,8.05
2023-05-03T03:05:14.350Z,9.02
2023-05-03T03:06:21.807Z,8.65
2023-05-03T03:07:24.019Z,8.27
2023-05-03T03:08:30.196Z,7.45
2023-05-03T03:09:36.108Z,8.65
2023-05-03T03:10:38.478Z,8.35
2023-05-03T03:11:41.088Z,7.88
2023-05-03T03:12:44.085Z,9.00
2023-05-03T03:13:53.432Z,8.20
2023-05-03T03:14:56.756Z,7.63
2023-05-03T03:15:59.543Z,8.15
2023-05-03T03:17:03.266Z,8.60
2023-05-03T03:18:05.761Z,8.52
2023-05-03T03:19:08.353Z,8.25
2023-05-03T03:20:13.803Z,8.80
2023-05-03T03:21:19.595Z,8.02
2023-05-03T03:22:21.735Z,7.97
2023-05-03T03:23:23.863Z,7.32
2023-05-03T03:24:26.751Z,7.45
2023-05-03T03:25:29.273Z,7.35
2023-05-03T03:26:33.207Z,7.13
2023-05-03T03:27:37.572Z,6.97
2023-05-03T03:28:41.821Z,7.03
2023-05-03T03:29:46.666Z,7.25
2023-05-03T03:30:49.485Z,7.10
2023-05-03T03:31:57.789Z,7.65
2023-05-03T03:33:00.094Z,8.38
2023-05-03T03:34:09.341Z,8.63
2023-05-03T03:35:11.981Z,9.15
2023-05-03T03:36:14.596Z,8.40
2023-05-03T03:37:21.868Z,9.23
2023-05-03T03:38:24.101Z,8.38
2023-05-03T03:39:32.870Z,8.85
2023-05-03T03:40:35.149Z,8.55
2023-05-03T03:41:37.508Z,7.22
2023-05-03T03:42:40.353Z,7.93
2023-05-03T03:43:42.575Z,8.32
2023-05-03T03:44:50.403Z,8.57
2023-05-03T03:45:52.665Z,9.05
2023-05-03T03:46:54.930Z,8.60
2023-05-03T03:47:58.106Z,10.00
2023-05-03T03:49:00.966Z,9.32
2023-05-03T03:50:06.402Z,8.32
2023-05-03T03:51:10.020Z,8.38
2023-05-03T03:52:18.159Z,8.57
2023-05-03T03:53:20.619Z,9.18
2023-05-03T03:54:22.968Z,8.95
2023-05-03T03:55:26.235Z,9.10
2023-05-03T03:56:30.788Z,7.88
2023-05-03T03:57:33.510Z,8.30
2023-05-03T03:58:36.095Z,9.00
2023-05-03T03:59:41.022Z,8.77
2023-05-03T04:00:43.753Z,7.97
2023-05-03T04:01:50.784Z,7.43
2023-05-03T04:02:53.308Z,7.82
2023-05-03T04:03:56.197Z,7.85
2023-05-03T04:04:58.808Z,7.40
2023-05-03T04:06:01.224Z,7.57
2023-05-03T04:07:04.610Z,8.07
2023-05-03T04:08:06.836Z,8.15
2023-05-03T04:09:11.042Z,9.23
2023-05-03T04:10:13.933Z,7.22
2023-05-03T04:11:16.763Z,8.20
2023-05-03T04:12:24.746Z,7.95
2023-05-03T04:13:27.053Z,8.30
2023-05-03T04:14:31.168Z,9.63
2023-05-03T04:15:33.745Z,8.45
2023-05-03T04:16:37.984Z,9.25
2023-05-03T04:17:41.710Z,9.57
2023-05-03T04:18:46.351Z,10.10
2023-05-03T04:19:49.185Z,9.60
2023-05-03T04:20:52.189Z,10.10
2023-05-03T04:21:54.432Z,9.07
2023-05-03T04:22:56.912Z,10.55
2023-05-03T04:24:04.670Z,8.70
2023-05-03T04:25:10.907Z,8.20
2023-05-03T04:26:27.516Z,8.18
2023-05-03T04:27:35.329Z,8.32
2023-05-03T04:28:38.898Z,7.53
2023-05-03T04:29:42.097Z,7.00
2023-05-03T04:30:46.811Z,7.28
2023-05-03T04:31:51.332Z,7.70
2023-05-03T04:32:54.369Z,7.63
2023-05-03T04:33:58.652Z,7.00
2023-05-03T04:35:02.147Z,7.50
2023-05-03T04:36:04.486Z,7.90
2023-05-03T04:37:08.830Z,7.45
2023-05-03T04:38:11.856Z,7.70
2023-05-03T04:39:15.290Z,7.63
2023-05-03T04:40:19.688Z,8.02
2023-05-03T04:41:27.563Z,7.07
2023-05-03T04:42:30.277Z,8.48
2023-05-03T04:43:32.876Z,8.10
2023-05-03T04:44:35.098Z,7.55
2023-05-03T04:45:37.701Z,7.97
2023-05-03T04:46:43.290Z,7.97
2023-05-03T04:47:46.201Z,8.02
2023-05-03T04:48:48.454Z,7.40
2023-05-03T04:49:51.526Z,7.43
2023-05-03T04:50:53.807Z,7.85
2023-05-03T04:51:57.885Z,7.93
2023-05-03T04:53:01.232Z,7.32
2023-05-03T04:54:05.271Z,6.93
2023-05-03T04:55:07.760Z,6.50
2023-05-03T04:56:10.937Z,6.55
2023-05-03T04:57:15.884Z,6.65
2023-05-03T04:58:18.081Z,6.90
2023-05-03T04:59:21.060Z,6.93
2023-05-03T05:00:23.687Z,5.95
2023-05-03T05:01:32.706Z,6.75
2023-05-03T05:02:38.152Z,5.97
2023-05-03T05:03:41.041Z,6.40
2023-05-03T05:04:49.795Z,6.80
2023-05-03T05:05:52.199Z,6.07
2023-05-03T05:06:55.175Z,7.30
2023-05-03T05:08:02.224Z,6.63
2023-05-03T05:09:22.172Z,6.93
2023-05-03T05:10:26.002Z,6.65
2023-05-03T05:11:31.303Z,6.75
2023-05-03T05:12:34.115Z,7.70
2023-05-03T05:13:39.557Z,7.07
2023-05-03T05:14:41.788Z,7.38
2023-05-03T05:15:44.685Z,6.68
2023-05-03T05:16:48.444Z,7.07
2023-05-03T05:17:51.680Z,7.00
2023-05-03T05:18:55.375Z,6.18
2023-05-03T05:20:01.260Z,6.18
2023-05-03T05:21:04.976Z,6.55
2023-05-03T05:22:08.964Z,6.43
2023-05-03T05:23:20.098Z,6.90
2023-05-03T05:24:23.345Z,7.00
2023-05-03T05:25:26.217Z,6.50
2023-05-03T05:26:28.738Z,7.35
2023-05-03T05:27:31.251Z,7.20
2023-05-03T05:28:34.845Z,6.85
2023-05-03T05:29:37.154Z,6.03
2023-05-03T05:30:39.410Z,6.32
2023-05-03T05:31:42.590Z,6.70
2023-05-03T05:32:45.350Z,7.15
2023-05-03T05:33:48.634Z,7.20
2023-05-03T05:34:55.411Z,6.32
2023-05-03T05:36:00.104Z,6.20
2023-05-03T05:37:02.791Z,7.13
2023-05-03T05:38:05.021Z,6.30
2023-05-03T05:39:08.440Z,6.75
2023-05-03T05:40:12.406Z,6.80
2023-05-03T05:41:21.055Z,7.03
2023-05-03T05:42:23.354Z,7.30
2023-05-03T05:43:25.651Z,6.28
2023-05-03T05:44:28.290Z,6.53
2023-05-03T05:45:31.226Z,6.97
2023-05-03T05:46:34.217Z,7.20
2023-05-03T05:47:36.484Z,6.95
2023-05-03T05:48:40.001Z,6.60
2023-05-03T05:49:42.564Z,6.85
2023-05-03T05:50:46.090Z,7.35
2023-05-03T05:51:49.657Z,8.10
2023-05-03T05:52:55.105Z,6.88
2023-05-03T05:54:00.059Z,7.40
2023-05-03T05:55:02.298Z,7.03
2023-05-03T05:56:06.114Z,7.22
2023-05-03T05:57:09.149Z,7.90
2023-05-03T05:58:13.137Z,7.45
2023-05-03T05:59:21.038Z,7.50
2023-05-03T06:00:24.286Z,7.93
2023-05-03T06:01:26.971Z,7.40
2023-05-03T06:02:29.728Z,7.95
2023-05-03T06:03:33.335Z,7.10
2023-05-03T06:04:38.086Z,6.78
2023-05-03T06:05:40.830Z,6.78
2023-05-03T06:06:45.209Z,7.03
2023-05-03T06:07:48.322Z,6.97
2023-05-03T06:08:51.405Z,6.78
2023-05-03T06:09:53.617Z,7.03
2023-05-03T06:10:56.115Z,7.20
2023-05-03T06:11:59.500Z,6.43
2023-05-03T06:13:03.808Z,6.93
2023-05-03T06:14:09.438Z,6.70
2023-05-03T06:15:13.330Z,6.45
2023-05-03T06:16:16.322Z,7.63
2023-05-03T06:17:19.378Z,7.05
2023-05-03T06:18:21.603Z,7.25
2023-05-03T06:19:24.658Z,7.03
2023-05-03T06:20:27.648Z,7.57
2023-05-03T06:21:31.175Z,7.82
2023-05-03T06:22:33.858Z,7.47
2023-05-03T06:23:37.677Z,7.28
2023-05-03T06:24:40.047Z,6.97
2023-05-03T06:25:42.270Z,6.93
2023-05-03T06:26:44.890Z,6.60
2023-05-03T06:27:47.190Z,6.57
2023-05-03T06:28:50.424Z,6.70
2023-05-03T06:29:52.860Z,7.57
2023-05-03T06:30:55.180Z,8.32
2023-05-03T06:31:57.716Z,7.22
2023-05-03T06:33:00.092Z,8.30
2023-05-03T06:34:03.395Z,7.63
2023-05-03T06:35:06.110Z,8.23
2023-05-03T06:36:09.218Z,7.55
2023-05-03T06:37:12.693Z,7.63
2023-05-03T06:38:15.012Z,7.72
2023-05-03T06:39:18.053Z,7.90
2023-05-03T06:40:22.721Z,8.00
2023-05-03T06:41:24.971Z,8.85
2023-05-03T06:42:27.746Z,8.50
2023-05-03T06:43:41.984Z,8.20
2023-05-03T06:44:44.197Z,7.90
2023-05-03T06:45:52.393Z,7.90
2023-05-03T06:46:55.133Z,8.00
2023-05-03T06:47:57.363Z,8.30
2023-05-03T06:48:59.975Z,8.45
2023-05-03T06:50:02.795Z,8.70
2023-05-03T06:51:05.347Z,8.20
2023-05-03T06:52:09.456Z,9.23
2023-05-03T06:53:13.918Z,7.95
2023-05-03T06:54:16.118Z,7.78
2023-05-03T06:55:18.828Z,9.35
2023-05-03T06:56:21.490Z,8.32
2023-05-03T06:57:24.710Z,8.70
2023-05-03T06:58:27.751Z,8.57
2023-05-03T06:59:29.967Z,8.05
2023-05-03T07:00:32.240Z,8.40
2023-05-03T07:01:34.894Z,8.23
2023-05-03T07:02:37.373Z,9.30
2023-05-03T07:03:41.813Z,9.10
2023-05-03T07:04:44.348Z,8.50
2023-05-03T07:05:47.237Z,9.30
2023-05-03T07:07:57.282Z,9.45
2023-05-03T07:08:59.468Z,9.68
2023-05-03T07:10:01.973Z,10.05
2023-05-03T07:11:04.594Z,9.75
2023-05-03T07:12:06.864Z,10.20
2023-05-03T07:13:09.088Z,9.35
2023-05-03T07:14:11.378Z,10.45
2023-05-03T07:15:14.860Z,10.00
2023-05-03T07:16:17.694Z,10.15
2023-05-03T07:17:22.101Z,10.05
2023-05-03T07:18:27.110Z,10.52
2023-05-03T07:19:30.032Z,9.45
2023-05-03T07:20:32.362Z,9.73
2023-05-03T07:21:35.183Z,10.38
2023-05-03T07:22:37.386Z,8.90
2023-05-03T07:23:40.484Z,10.40
2023-05-03T07:24:42.875Z,10.00
2023-05-03T07:25:45.883Z,10.18
2023-05-03T07:26:49.182Z,10.15
2023-05-03T07:27:51.468Z,10.35
2023-05-03T07:28:53.916Z,9.73
2023-05-03T07:29:56.175Z,10.20
2023-05-03T07:30:59.491Z,9.88
2023-05-03T07:32:01.728Z,9.85
2023-05-03T07:33:04.047Z,10.60
2023-05-03T07:34:06.634Z,11.70
2023-05-03T07:35:09.375Z,10.98
2023-05-03T07:36:11.651Z,10.73
2023-05-03T07:37:14.500Z,10.80
2023-05-03T07:38:17.360Z,10.38
2023-05-03T07:39:19.577Z,10.73
2023-05-03T07:40:21.783Z,10.98
2023-05-03T07:41:24.323Z,11.02
2023-05-03T07:42:26.684Z,9.98
2023-05-03T07:43:29.290Z,10.30
2023-05-03T07:44:31.638Z,10.25
2023-05-03T07:45:33.950Z,9.93
2023-05-03T07:46:36.649Z,9.70
2023-05-03T07:47:39.980Z,9.93
2023-05-03T07:48:42.172Z,10.18
2023-05-03T07:49:44.677Z,9.32
2023-05-03T07:50:46.962Z,9.85
2023-05-03T07:51:49.146Z,10.00
2023-05-03T07:52:51.771Z,10.13
2023-05-03T07:53:54.293Z,10.18
2023-05-03T07:54:56.459Z,10.52
2023-05-03T07:55:58.652Z,9.82
2023-05-03T07:57:00.971Z,10.13
2023-05-03T07:58:03.543Z,10.05
2023-05-03T07:59:10.114Z,9.50
2023-05-03T08:00:13.476Z,9.52
2023-05-03T08:01:15.904Z,9.75
2023-05-03T08:02:18.419Z,9.88
2023-05-03T08:03:21.436Z,8.75
2023-05-03T08:04:25.411Z,10.00
2023-05-03T08:05:28.429Z,9.85
2023-05-03T08:06:31.714Z,10.20
2023-05-03T08:07:34.072Z,9.65
2023-05-03T08:08:38.411Z,9.75
2023-05-03T08:09:41.702Z,10.23
2023-05-03T08:10:43.980Z,10.98
2023-05-03T08:11:46.334Z,10.05
2023-05-03T08:12:48.863Z,9.15
2023-05-03T08:13:51.059Z,9.82
2023-05-03T08:14:54.241Z,9.35
2023-05-03T08:15:56.449Z,8.95
2023-05-03T08:16:59.541Z,8.98
2023-05-03T08:18:02.043Z,9.70
2023-05-03T08:19:04.781Z,10.30
2023-05-03T08:20:08.345Z,10.23
2023-05-03T08:21:12.268Z,9.75
2023-05-03T08:22:14.856Z,10.05
2023-05-03T08:23:17.708Z,10.60
2023-05-03T08:24:20.751Z,10.10
2023-05-03T08:25:24.909Z,8.88
2023-05-03T08:26:28.580Z,8.85
2023-05-03T08:27:31.789Z,9.90
2023-05-03T08:28:34.284Z,9.27
2023-05-03T08:29:39.618Z,9.57
2023-05-03T08:30:41.933Z,10.48
2023-05-03T08:31:44.122Z,10.48
2023-05-03T08:32:46.539Z,9.18
2023-05-03T08:33:48.760Z,9.95
2023-05-03T08:34:52.813Z,9.55
2023-05-03T08:35:55.131Z,9.65
2023-05-03T08:36:57.444Z,9.02
2023-05-03T08:37:59.620Z,9.27
2023-05-03T08:39:06.323Z,9.65
2023-05-03T08:40:11.890Z,9.65
2023-05-03T08:41:30.464Z,10.05
2023-05-03T08:42:33.668Z,8.93
2023-05-03T08:43:40.911Z,9.23
2023-05-03T08:44:48.454Z,9.90
2023-05-03T08:45:51.299Z,10.00
2023-05-03T08:46:53.486Z,9.70
2023-05-03T08:47:55.763Z,9.13
2023-05-03T08:48:59.825Z,9.48
2023-05-03T08:50:05.011Z,9.65
2023-05-03T08:51:09.929Z,9.95
2023-05-03T08:52:14.749Z,9.43
2023-05-03T08:53:16.980Z,9.85
2023-05-03T08:54:21.283Z,9.43
2023-05-03T08:55:23.493Z,9.00
2023-05-03T08:56:41.681Z,9.38
2023-05-03T08:57:43.828Z,8.57
2023-05-03T08:58:46.161Z,9.80
2023-05-03T09:00:01.623Z,9.95
2023-05-03T09:01:06.232Z,8.70
2023-05-03T09:02:09.614Z,9.60
2023-05-03T09:03:12.321Z,8.75
2023-05-03T09:04:15.028Z,8.90
2023-05-03T09:05:17.334Z,8.93
2023-05-03T09:06:27.108Z,10.00
2023-05-03T09:07:29.365Z,9.15
2023-05-03T09:08:43.484Z,9.18
2023-05-03T09:09:49.008Z,8.82
2023-05-03T09:10:51.258Z,9.23
2023-05-03T09:11:53.423Z,8.90
2023-05-03T09:13:03.395Z,8.65
2023-05-03T09:14:16.457Z,8.90
2023-05-03T09:15:22.190Z,9.40
2023-05-03T09:16:27.395Z,9.02
2023-05-03T09:17:29.710Z,8.65
2023-05-03T09:18:31.872Z,8.50
2023-05-03T09:19:50.480Z,9.75
2023-05-03T09:20:53.252Z,10.05
2023-05-03T09:22:06.747Z,9.73
2023-05-03T09:23:09.781Z,9.23
2023-05-03T09:24:17.470Z,9.13
2023-05-03T09:25:19.739Z,9.38
2023-05-03T09:26:29.849Z,10.20
2023-05-03T09:27:32.052Z,9.73
2023-05-03T09:28:42.089Z,9.02
2023-05-03T09:29:44.364Z,9.10
2023-05-03T09:30:47.591Z,8.65
2023-05-03T09:32:02.681Z,8.95
2023-05-03T09:33:05.038Z,7.57
2023-05-03T09:34:22.447Z,7.72
2023-05-03T09:35:24.812Z,8.18
2023-05-03T09:36:29.981Z,8.93
2023-05-03T09:37:38.685Z,9.18
2023-05-03T09:38:41.397Z,8.10
2023-05-03T09:39:45.779Z,7.88
2023-05-03T09:40:48.254Z,9.13
2023-05-03T09:41:50.584Z,9.50
2023-05-03T09:43:07.278Z,8.80
2023-05-03T09:44:09.614Z,9.63
2023-05-03T09:45:11.852Z,9.82
2023-05-03T09:46:14.382Z,9.32
2023-05-03T09:47:16.951Z,9.63
2023-05-03T09:48:23.325Z,10.80
2023-05-03T09:49:25.565Z,10.13
2023-05-03T09:50:27.784Z,8.70
2023-05-03T09:51:32.265Z,8.80
2023-05-03T09:52:34.855Z,8.50
2023-05-03T09:53:38.491Z,8.63
2023-05-03T09:54:42.174Z,8.60
2023-05-03T09:55:44.451Z,7.88
2023-05-03T09:56:47.540Z,8.45
2023-05-03T09:57:54.962Z,8.40
2023-05-03T09:58:57.748Z,9.05
2023-05-03T10:00:00.023Z,8.52
2023-05-03T10:01:02.735Z,8.15
2023-05-03T10:02:07.797Z,8.88
2023-05-03T10:03:12.171Z,9.15
2023-05-03T10:04:20.508Z,7.85
2023-05-03T10:05:23.285Z,9.35
2023-05-03T10:06:28.587Z,9.45
2023-05-03T10:07:32.253Z,8.52
2023-05-03T10:08:40.998Z,8.40
2023-05-03T10:09:45.376Z,9.55
2023-05-03T10:10:51.901Z,8.85
2023-05-03T10:11:55.029Z,8.65
2023-05-03T10:12:57.973Z,8.93
2023-05-03T10:14:00.489Z,8.93
2023-05-03T10:15:07.676Z,8.45
2023-05-03T10:16:14.187Z,8.88
2023-05-03T10:17:32.054Z,9.55
2023-05-03T10:18:52.139Z,9.20
2023-05-03T10:19:57.560Z,8.85
2023-05-03T10:21:09.548Z,8.43
2023-05-03T10:22:11.982Z,9.48
2023-05-03T10:23:14.276Z,9.48
2023-05-03T10:24:17.299Z,8.07
2023-05-03T10:25:19.505Z,8.30
2023-05-03T10:26:22.491Z,7.85
2023-05-03T10:27:25.648Z,8.20
2023-05-03T10:28:27.835Z,8.80
2023-05-03T10:29:36.033Z,8.50
2023-05-03T10:30:40.161Z,8.00
2023-05-03T10:31:48.655Z,7.88
2023-05-03T10:32:50.976Z,8.68
2023-05-03T10:33:53.185Z,7.38
2023-05-03T10:35:23.095Z,8.00
2023-05-03T10:36:27.295Z,6.97
2023-05-03T10:37:36.137Z,8.32
2023-05-03T10:38:38.575Z,8.38
2023-05-03T10:39:46.862Z,7.20
2023-05-03T10:40:49.045Z,7.40
2023-05-03T10:42:03.825Z,7.10
2023-05-03T10:43:06.070Z,9.13
2023-05-03T10:44:28.640Z,9.55
2023-05-03T10:45:31.675Z,8.82
2023-05-03T10:46:34.364Z,8.40
2023-05-03T10:47:36.707Z,7.22
2023-05-03T10:48:38.906Z,8.75
2023-05-03T10:49:41.201Z,8.40
2023-05-03T10:50:43.533Z,8.80
2023-05-03T10:51:45.946Z,8.70
2023-05-03T10:52:48.603Z,7.13
2023-05-03T10:53:51.431Z,7.70
2023-05-03T10:54:54.313Z,8.13
2023-05-03T10:56:12.658Z,7.95
2023-05-03T10:57:15.356Z,7.68
2023-05-03T10:58:17.859Z,7.63
2023-05-03T10:59:20.913Z,8.50
2023-05-03T11:00:41.346Z,7.75
2023-05-03T11:01:46.410Z,8.35
2023-05-03T11:03:12.759Z,7.20
2023-05-03T11:04:38.281Z,8.00
2023-05-03T11:05:40.553Z,8.00
2023-05-03T11:06:42.742Z,7.82
2023-05-03T11:07:44.970Z,8.32
2023-05-03T11:08:48.612Z,7.43
2023-05-03T11:09:50.844Z,7.63
2023-05-03T11:11:00.531Z,8.93
2023-05-03T11:12:07.318Z,7.47
2023-05-03T11:13:09.599Z,8.23
2023-05-03T11:14:13.536Z,7.68
2023-05-03T11:15:18.990Z,7.00
2023-05-03T11:16:21.507Z,7.40
2023-05-03T11:17:23.754Z,7.53
2023-05-03T11:18:27.491Z,7.65
2023-05-03T11:19:29.812Z,7.28
2023-05-03T11:20:32.070Z,7.05
2023-05-03T11:21:34.647Z,6.60
2023-05-03T11:22:37.738Z,7.03
2023-05-03T11:23:41.453Z,7.35
2023-05-03T11:24:43.610Z,7.38
2023-05-03T11:25:45.989Z,6.32
2023-05-03T11:26:48.859Z,6.45
2023-05-03T11:27:51.065Z,5.95
2023-05-03T11:28:54.124Z,6.13
2023-05-03T11:29:58.391Z,5.60
2023-05-03T11:31:02.067Z,7.63
2023-05-03T11:32:04.521Z,7.82
2023-05-03T11:33:06.855Z,8.38
2023-05-03T11:34:11.120Z,6.88
2023-05-03T11:35:15.197Z,6.95
2023-05-03T11:36:17.546Z,6.88
2023-05-03T11:37:19.802Z,7.30
2023-05-03T11:38:22.037Z,6.88
2023-05-03T11:39:24.273Z,6.57
2023-05-03T11:40:26.766Z,6.43
2023-05-03T11:41:28.924Z,6.82
2023-05-03T11:42:31.286Z,6.50
2023-05-03T11:43:33.391Z,7.72
2023-05-03T11:44:37.580Z,6.45
2023-05-03T11:45:45.349Z,7.00
2023-05-03T11:46:48.539Z,6.60
2023-05-03T11:47:52.039Z,6.90
2023-05-03T11:48:54.362Z,7.13
2023-05-03T11:50:00.220Z,6.93
2023-05-03T11:51:07.309Z,7.20
2023-05-03T11:52:09.556Z,6.47
2023-05-03T11:53:15.647Z,6.68
2023-05-03T11:54:25.467Z,6.03
2023-05-03T11:55:30.410Z,6.38
2023-05-03T11:56:33.232Z,6.65
2023-05-03T11:57:37.268Z,6.25
2023-05-03T11:59:00.622Z,5.85
2023-05-03T12:00:21.923Z,6.28
2023-05-03T12:01:26.132Z,6.18
2023-05-03T12:02:30.344Z,6.07
2023-05-03T12:03:33.593Z,6.30
2023-05-03T12:04:41.489Z,6.07
2023-05-03T12:05:44.764Z,6.38
2023-05-03T12:06:52.677Z,5.95
2023-05-03T12:07:56.921Z,7.35
2023-05-03T12:09:03.946Z,6.60
2023-05-03T12:10:23.812Z,6.05
2023-05-03T12:11:31.498Z,6.75
2023-05-03T12:12:37.391Z,6.80
2023-05-03T12:13:44.117Z,6.15
2023-05-03T12:15:04.150Z,5.85
2023-05-03T12:16:13.726Z,5.90
2023-05-03T12:17:34.051Z,6.47
2023-05-03T12:18:55.911Z,6.00
2023-05-03T12:20:42.736Z,5.80
2023-05-03T12:21:54.137Z,5.80
2023-05-03T12:23:04.451Z,6.60
2023-05-03T12:24:09.201Z,5.97
2023-05-03T12:25:15.399Z,5.57
2023-05-03T12:26:22.066Z,5.47
2023-05-03T12:27:24.348Z,5.90
2023-05-03T12:28:26.783Z,6.25
2023-05-03T12:29:34.188Z,6.32
2023-05-03T12:30:40.043Z,6.50
2023-05-03T12:31:44.431Z,6.10
2023-05-03T12:32:46.932Z,6.35
2023-05-03T12:34:06.132Z,6.07
2023-05-03T12:35:14.293Z,5.97
2023-05-03T12:36:18.431Z,6.03
2023-05-03T12:37:27.097Z,5.80
2023-05-03T12:38:31.058Z,6.03
2023-05-03T12:39:34.136Z,5.72
2023-05-03T12:40:36.889Z,5.85
2023-05-03T12:42:44.646Z,6.50
2023-05-03T12:43:47.198Z,6.72
2023-05-03T12:44:50.779Z,6.55
2023-05-03T12:47:09.574Z,5.93
2023-05-03T12:48:13.082Z,7.10
2023-05-03T12:49:15.988Z,6.65
2023-05-03T12:50:19.157Z,6.15
2023-05-03T12:51:26.026Z,6.07
2023-05-03T12:53:39.005Z,5.65
2023-05-03T12:54:42.415Z,5.88
2023-05-03T12:55:50.682Z,5.38
2023-05-03T12:56:55.472Z,5.50
2023-05-03T12:58:26.807Z,5.72
2023-05-03T12:59:40.082Z,4.72
2023-05-03T13:00:52.912Z,5.32
2023-05-03T13:03:14.740Z,5.68
2023-05-03T13:03:32.503Z,6.57
2023-05-03T13:04:56.775Z,5.82
2023-05-03T13:05:58.397Z,5.55
2023-05-03T13:07:01.241Z,5.65
2023-05-03T13:08:09.425Z,5.30
2023-05-03T13:09:19.260Z,5.47
2023-05-03T13:10:23.114Z,5.10
2023-05-03T13:11:26.186Z,4.80
2023-05-03T13:12:28.755Z,5.35
2023-05-03T13:13:31.658Z,5.05
2023-05-03T13:14:33.852Z,5.25
2023-05-03T13:15:36.656Z,5.13
2023-05-03T13:16:40.098Z,5.57
2023-05-03T13:17:44.012Z,5.25
2023-05-03T13:18:47.950Z,5.10
2023-05-03T13:19:51.321Z,5.22
2023-05-03T13:20:53.743Z,5.13
2023-05-03T13:21:55.961Z,5.68
2023-05-03T13:22:59.367Z,4.93
2023-05-03T13:24:01.517Z,5.07
2023-05-03T13:25:04.287Z,5.40
2023-05-03T13:26:06.909Z,5.50
2023-05-03T13:27:11.313Z,4.85
2023-05-03T13:28:13.685Z,5.35
2023-05-03T13:29:16.127Z,5.35
2023-05-03T13:30:19.494Z,4.65
2023-05-03T13:31:24.118Z,4.70
2023-05-03T13:32:26.419Z,5.10
2023-05-03T13:33:29.430Z,4.85
2023-05-03T13:34:32.005Z,4.40
2023-05-03T13:35:34.190Z,5.22
2023-05-03T13:36:36.838Z,5.22
2023-05-03T13:37:39.511Z,5.03
2023-05-03T13:38:44.553Z,5.82
2023-05-03T13:39:47.003Z,4.82
2023-05-03T13:40:49.187Z,5.22
2023-05-03T13:41:51.476Z,4.80
2023-05-03T13:42:53.631Z,5.25
2023-05-03T13:43:55.912Z,5.13
2023-05-03T13:44:58.598Z,5.88
2023-05-03T13:46:02.053Z,4.88
2023-05-03T13:47:04.485Z,5.43
2023-05-03T13:48:18.033Z,5.63
2023-05-03T13:49:21.469Z,4.93
2023-05-03T13:50:23.674Z,5.30
2023-05-03T13:51:27.003Z,5.10
2023-05-03T13:52:29.195Z,5.10
2023-05-03T13:53:31.352Z,5.75
2023-05-03T13:54:33.559Z,5.32
2023-05-03T13:55:35.840Z,5.40
2023-05-03T13:56:38.305Z,5.40
2023-05-03T13:57:40.882Z,4.68
2023-05-03T13:58:43.234Z,5.95
2023-05-03T13:59:45.618Z,5.50
2023-05-03T14:00:47.761Z,4.85
2023-05-03T14:01:50.486Z,4.88
2023-05-03T14:02:53.201Z,4.93
2023-05-03T14:03:56.077Z,4.90
2023-05-03T14:04:58.320Z,4.55
2023-05-03T14:06:00.808Z,5.35
2023-05-03T14:07:04.041Z,4.43
2023-05-03T14:08:06.226Z,5.75
2023-05-03T14:09:09.219Z,4.72
2023-05-03T14:10:11.971Z,4.60
2023-05-03T14:11:17.789Z,4.13
2023-05-03T14:12:20.183Z,5.10
2023-05-03T14:13:22.423Z,4.45
2023-05-03T14:14:26.803Z,4.35
2023-05-03T14:15:29.221Z,4.10
2023-05-03T14:16:40.970Z,4.32
2023-05-03T14:18:49.801Z,4.30
2023-05-03T14:19:52.216Z,4.13
2023-05-03T14:20:54.990Z,4.40
2023-05-03T14:21:59.038Z,3.58
2023-05-03T14:23:02.144Z,4.05
2023-05-03T14:24:04.655Z,4.00
2023-05-03T14:25:07.902Z,4.25